Tooele, Utah
Current Conditions -  °F | °C
As of 2:53 AM on Saturday 29 Nov 2014 (Local Time) from KSLC Reporting Station
Broken Clouds Broken Clouds  
Wind Chill: 56°   Ceiling: 15000
Heat Index: 56°   Visibility: 10mi
Dew Point: 13°   Wind: 18mph
Humidity: 18%   Direction: 170°S
Pressure: 29.74"   Gusts: NA
Location:  40.53°N, 112.29°W
Report Text: KSLC 290953Z 17016KT 10SM BKN150 BKN200 13/M11 A2974 RMK AO2 SLP033 T01331106
Loading
Personal Weather Stations






























Interactive Weather Map New forecast layout! Learn more

10-Day Weather Forecast

Advertisements
Track Severe Weather on mobile